Wailea, Hawaii
Current Conditions -  °F | °C
As of 10:54 PM on Sunday 23 Nov 2014 (Local Time) from PHOG Reporting Station
Clear Clear  
Wind Chill: 73°   Ceiling: Unl
Heat Index: 73°   Visibility: 10mi
Dew Point: 64°   Wind: 7mph
Humidity: 73%   Direction: 160°SSE
Pressure: 29.93"   Gusts: NA
Location:  20.7651°N, 156.425°W
Report Text: PHOG 240854Z 16006KT 10SM CLR 23/18 A2993 RMK AO2 SLP141 T02280178 50003 $
Loading
Personal Weather Stations






























Interactive Weather Map New forecast layout! Learn more

10-Day Weather Forecast

Advertisements
Track Severe Weather on mobile